sensor_id;sensor_type;location;lat;lon;timestamp;P1;durP1;ratioP1;P2;durP2;ratioP2
7879;SDS011;3985;49.366;2.738;2023-04-25T00:00:30;3.25;;;3.00;;
7879;SDS011;3985;49.366;2.738;2023-04-25T00:02:58;5.25;;;5.25;;
7879;SDS011;3985;49.366;2.738;2023-04-25T00:05:25;4.00;;;2.25;;
7879;SDS011;3985;49.366;2.738;2023-04-25T00:07:55;2.00;;;2.00;;
7879;SDS011;3985;49.366;2.738;2023-04-25T00:10:24;2.75;;;2.75;;
7879;SDS011;3985;49.366;2.738;2023-04-25T00:12:51;1.25;;;1.25;;
7879;SDS011;3985;49.366;2.738;2023-04-25T00:15:18;2.50;;;2.50;;
7879;SDS011;3985;49.366;2.738;2023-04-25T00:17:45;6.25;;;6.25;;
7879;SDS011;3985;49.366;2.738;2023-04-25T00:20:13;7.75;;;6.50;;
7879;SDS011;3985;49.366;2.738;2023-04-25T00:22:40;3.50;;;2.25;;
7879;SDS011;3985;49.366;2.738;2023-04-25T00:25:09;2.00;;;2.00;;
7879;SDS011;3985;49.366;2.738;2023-04-25T00:27:36;3.00;;;2.25;;
7879;SDS011;3985;49.366;2.738;2023-04-25T00:30:04;3.00;;;3.00;;
7879;SDS011;3985;49.366;2.738;2023-04-25T00:32:32;5.00;;;2.50;;
7879;SDS011;3985;49.366;2.738;2023-04-25T00:34:59;3.00;;;3.00;;
7879;SDS011;3985;49.366;2.738;2023-04-25T00:37:27;1.25;;;1.25;;
7879;SDS011;3985;49.366;2.738;2023-04-25T00:39:54;4.25;;;2.00;;
7879;SDS011;3985;49.366;2.738;2023-04-25T00:42:25;2.00;;;2.00;;
7879;SDS011;3985;49.366;2.738;2023-04-25T00:44:52;1.50;;;1.50;;
7879;SDS011;3985;49.366;2.738;2023-04-25T00:47:20;2.75;;;2.75;;
7879;SDS011;3985;49.366;2.738;2023-04-25T00:49:47;2.00;;;2.00;;
7879;SDS011;3985;49.366;2.738;2023-04-25T00:52:14;2.50;;;2.50;;
7879;SDS011;3985;49.366;2.738;2023-04-25T00:54:42;3.25;;;3.25;;
7879;SDS011;3985;49.366;2.738;2023-04-25T00:57:09;5.00;;;5.00;;
7879;SDS011;3985;49.366;2.738;2023-04-25T00:59:38;4.00;;;4.00;;
7879;SDS011;3985;49.366;2.738;2023-04-25T01:02:05;4.00;;;4.00;;
7879;SDS011;3985;49.366;2.738;2023-04-25T01:04:34;5.00;;;5.00;;
7879;SDS011;3985;49.366;2.738;2023-04-25T01:07:01;8.00;;;4.50;;
7879;SDS011;3985;49.366;2.738;2023-04-25T01:09:29;4.00;;;4.00;;
7879;SDS011;3985;49.366;2.738;2023-04-25T01:11:57;3.50;;;3.50;;
7879;SDS011;3985;49.366;2.738;2023-04-25T01:14:25;2.75;;;2.75;;
7879;SDS011;3985;49.366;2.738;2023-04-25T01:16:53;4.75;;;4.00;;
7879;SDS011;3985;49.366;2.738;2023-04-25T01:19:21;5.25;;;5.25;;
7879;SDS011;3985;49.366;2.738;2023-04-25T01:21:50;4.25;;;4.25;;
7879;SDS011;3985;49.366;2.738;2023-04-25T01:24:17;6.25;;;6.25;;
7879;SDS011;3985;49.366;2.738;2023-04-25T01:26:45;10.25;;;8.50;;
7879;SDS011;3985;49.366;2.738;2023-04-25T01:29:15;10.75;;;10.75;;
7879;SDS011;3985;49.366;2.738;2023-04-25T01:31:43;17.00;;;14.00;;
7879;SDS011;3985;49.366;2.738;2023-04-25T01:34:11;23.25;;;17.25;;
7879;SDS011;3985;49.366;2.738;2023-04-25T01:36:38;21.00;;;17.00;;
7879;SDS011;3985;49.366;2.738;2023-04-25T01:39:07;19.00;;;16.50;;
7879;SDS011;3985;49.366;2.738;2023-04-25T01:41:35;20.50;;;16.00;;
7879;SDS011;3985;49.366;2.738;2023-04-25T01:44:02;16.50;;;12.50;;
7879;SDS011;3985;49.366;2.738;2023-04-25T01:46:30;17.00;;;17.00;;
7879;SDS011;3985;49.366;2.738;2023-04-25T01:48:59;16.75;;;16.50;;
7879;SDS011;3985;49.366;2.738;2023-04-25T01:51:26;21.25;;;18.25;;
7879;SDS011;3985;49.366;2.738;2023-04-25T01:53:53;14.75;;;12.50;;
7879;SDS011;3985;49.366;2.738;2023-04-25T01:56:23;20.00;;;17.00;;
7879;SDS011;3985;49.366;2.738;2023-04-25T01:58:50;18.75;;;16.00;;
7879;SDS011;3985;49.366;2.738;2023-04-25T02:01:18;14.00;;;12.25;;
7879;SDS011;3985;49.366;2.738;2023-04-25T02:03:45;13.75;;;13.75;;
7879;SDS011;3985;49.366;2.738;2023-04-25T02:06:12;6.50;;;6.50;;
7879;SDS011;3985;49.366;2.738;2023-04-25T02:08:39;16.00;;;13.25;;
7879;SDS011;3985;49.366;2.738;2023-04-25T02:11:06;16.75;;;15.25;;
7879;SDS011;3985;49.366;2.738;2023-04-25T02:13:35;15.25;;;12.50;;
7879;SDS011;3985;49.366;2.738;2023-04-25T02:16:02;17.00;;;17.00;;
7879;SDS011;3985;49.366;2.738;2023-04-25T02:18:30;17.50;;;15.50;;
7879;SDS011;3985;49.366;2.738;2023-04-25T02:20:58;16.75;;;11.75;;
7879;SDS011;3985;49.366;2.738;2023-04-25T02:23:26;12.75;;;12.75;;
7879;SDS011;3985;49.366;2.738;2023-04-25T02:25:54;22.50;;;15.00;;
7879;SDS011;3985;49.366;2.738;2023-04-25T02:28:22;16.00;;;14.50;;
7879;SDS011;3985;49.366;2.738;2023-04-25T02:30:51;18.75;;;16.00;;
7879;SDS011;3985;49.366;2.738;2023-04-25T02:33:19;13.25;;;11.50;;
7879;SDS011;3985;49.366;2.738;2023-04-25T02:35:46;13.75;;;13.25;;
7879;SDS011;3985;49.366;2.738;2023-04-25T02:38:13;15.25;;;12.75;;
7879;SDS011;3985;49.366;2.738;2023-04-25T02:40:41;17.25;;;15.00;;
7879;SDS011;3985;49.366;2.738;2023-04-25T02:43:08;14.75;;;13.75;;
7879;SDS011;3985;49.366;2.738;2023-04-25T02:45:35;19.25;;;17.50;;
7879;SDS011;3985;49.366;2.738;2023-04-25T02:48:04;19.50;;;19.50;;
7879;SDS011;3985;49.366;2.738;2023-04-25T02:50:32;15.00;;;13.50;;
7879;SDS011;3985;49.366;2.738;2023-04-25T02:52:59;15.50;;;13.25;;
7879;SDS011;3985;49.366;2.738;2023-04-25T02:55:26;14.25;;;14.00;;
7879;SDS011;3985;49.366;2.738;2023-04-25T02:57:56;13.75;;;13.75;;
7879;SDS011;3985;49.366;2.738;2023-04-25T03:00:23;16.25;;;16.00;;
7879;SDS011;3985;49.366;2.738;2023-04-25T03:02:59;20.25;;;14.50;;
7879;SDS011;3985;49.366;2.738;2023-04-25T03:05:28;15.75;;;13.25;;
7879;SDS011;3985;49.366;2.738;2023-04-25T03:07:55;14.00;;;14.00;;
7879;SDS011;3985;49.366;2.738;2023-04-25T03:10:23;22.50;;;19.75;;
7879;SDS011;3985;49.366;2.738;2023-04-25T03:12:50;20.00;;;20.00;;
7879;SDS011;3985;49.366;2.738;2023-04-25T03:15:17;24.00;;;20.00;;
7879;SDS011;3985;49.366;2.738;2023-04-25T03:17:44;14.00;;;14.00;;
7879;SDS011;3985;49.366;2.738;2023-04-25T03:20:12;15.25;;;15.25;;
7879;SDS011;3985;49.366;2.738;2023-04-25T03:22:41;14.50;;;14.50;;
7879;SDS011;3985;49.366;2.738;2023-04-25T03:25:08;14.00;;;14.00;;
7879;SDS011;3985;49.366;2.738;2023-04-25T03:27:35;20.75;;;19.00;;
7879;SDS011;3985;49.366;2.738;2023-04-25T03:30:03;20.75;;;17.00;;
7879;SDS011;3985;49.366;2.738;2023-04-25T03:32:31;15.25;;;15.25;;
7879;SDS011;3985;49.366;2.738;2023-04-25T03:35:01;19.00;;;16.25;;
7879;SDS011;3985;49.366;2.738;2023-04-25T03:37:29;20.25;;;18.25;;
7879;SDS011;3985;49.366;2.738;2023-04-25T03:39:57;11.50;;;11.50;;
7879;SDS011;3985;49.366;2.738;2023-04-25T03:42:25;14.75;;;14.50;;
7879;SDS011;3985;49.366;2.738;2023-04-25T03:44:52;13.25;;;13.25;;
7879;SDS011;3985;49.366;2.738;2023-04-25T03:47:19;11.50;;;11.50;;
7879;SDS011;3985;49.366;2.738;2023-04-25T03:49:46;13.75;;;13.75;;
7879;SDS011;3985;49.366;2.738;2023-04-25T03:52:16;11.75;;;11.00;;
7879;SDS011;3985;49.366;2.738;2023-04-25T03:54:44;12.25;;;12.25;;
7879;SDS011;3985;49.366;2.738;2023-04-25T03:57:12;13.75;;;12.00;;
7879;SDS011;3985;49.366;2.738;2023-04-25T03:59:40;9.75;;;8.25;;
7879;SDS011;3985;49.366;2.738;2023-04-25T04:02:07;10.25;;;10.25;;
7879;SDS011;3985;49.366;2.738;2023-04-25T04:04:34;14.50;;;11.50;;
7879;SDS011;3985;49.366;2.738;2023-04-25T04:07:02;9.75;;;9.75;;
7879;SDS011;3985;49.366;2.738;2023-04-25T04:09:29;16.00;;;12.00;;
7879;SDS011;3985;49.366;2.738;2023-04-25T04:11:56;10.00;;;10.00;;
7879;SDS011;3985;49.366;2.738;2023-04-25T04:14:25;10.50;;;10.50;;
7879;SDS011;3985;49.366;2.738;2023-04-25T04:16:54;13.25;;;12.25;;
7879;SDS011;3985;49.366;2.738;2023-04-25T04:19:21;11.00;;;9.50;;
7879;SDS011;3985;49.366;2.738;2023-04-25T04:21:48;11.25;;;8.75;;
7879;SDS011;3985;49.366;2.738;2023-04-25T04:24:15;10.25;;;8.25;;
7879;SDS011;3985;49.366;2.738;2023-04-25T04:26:42;10.00;;;10.00;;
7879;SDS011;3985;49.366;2.738;2023-04-25T04:29:11;7.75;;;7.75;;
7879;SDS011;3985;49.366;2.738;2023-04-25T04:31:47;10.75;;;10.25;;
7879;SDS011;3985;49.366;2.738;2023-04-25T04:34:15;9.50;;;8.00;;
7879;SDS011;3985;49.366;2.738;2023-04-25T04:36:43;8.25;;;6.50;;
7879;SDS011;3985;49.366;2.738;2023-04-25T04:39:11;9.25;;;7.75;;
7879;SDS011;3985;49.366;2.738;2023-04-25T04:41:38;7.75;;;7.75;;
7879;SDS011;3985;49.366;2.738;2023-04-25T04:44:05;8.75;;;8.75;;
7879;SDS011;3985;49.366;2.738;2023-04-25T04:46:33;5.50;;;5.50;;
7879;SDS011;3985;49.366;2.738;2023-04-25T04:49:07;4.75;;;4.75;;
7879;SDS011;3985;49.366;2.738;2023-04-25T04:51:34;4.25;;;4.25;;
7879;SDS011;3985;49.366;2.738;2023-04-25T04:54:02;9.00;;;7.50;;
7879;SDS011;3985;49.366;2.738;2023-04-25T04:56:29;4.00;;;4.00;;
7879;SDS011;3985;49.366;2.738;2023-04-25T04:58:57;5.50;;;5.50;;
7879;SDS011;3985;49.366;2.738;2023-04-25T05:01:24;3.50;;;3.50;;
7879;SDS011;3985;49.366;2.738;2023-04-25T05:03:52;5.00;;;5.00;;
7879;SDS011;3985;49.366;2.738;2023-04-25T05:06:26;7.75;;;5.50;;
7879;SDS011;3985;49.366;2.738;2023-04-25T05:08:54;11.50;;;11.50;;
7879;SDS011;3985;49.366;2.738;2023-04-25T05:11:24;10.25;;;9.00;;
7879;SDS011;3985;49.366;2.738;2023-04-25T05:13:52;10.50;;;10.50;;
7879;SDS011;3985;49.366;2.738;2023-04-25T05:16:19;14.25;;;14.25;;
7879;SDS011;3985;49.366;2.738;2023-04-25T05:18:47;11.50;;;10.00;;
7879;SDS011;3985;49.366;2.738;2023-04-25T05:21:16;15.25;;;14.50;;
7879;SDS011;3985;49.366;2.738;2023-04-25T05:23:44;12.00;;;12.00;;
7879;SDS011;3985;49.366;2.738;2023-04-25T05:26:12;16.50;;;14.75;;
7879;SDS011;3985;49.366;2.738;2023-04-25T05:28:39;15.50;;;15.50;;
7879;SDS011;3985;49.366;2.738;2023-04-25T05:31:07;21.25;;;18.75;;
7879;SDS011;3985;49.366;2.738;2023-04-25T05:33:35;21.00;;;19.00;;
7879;SDS011;3985;49.366;2.738;2023-04-25T05:36:02;16.75;;;16.00;;
7879;SDS011;3985;49.366;2.738;2023-04-25T05:38:30;18.25;;;17.50;;
7879;SDS011;3985;49.366;2.738;2023-04-25T05:41:01;24.00;;;22.25;;
7879;SDS011;3985;49.366;2.738;2023-04-25T05:43:28;14.00;;;14.00;;
7879;SDS011;3985;49.366;2.738;2023-04-25T05:45:56;23.75;;;22.00;;
7879;SDS011;3985;49.366;2.738;2023-04-25T05:48:23;19.50;;;17.50;;
7879;SDS011;3985;49.366;2.738;2023-04-25T05:50:50;23.00;;;18.00;;
7879;SDS011;3985;49.366;2.738;2023-04-25T05:53:18;21.25;;;19.75;;
7879;SDS011;3985;49.366;2.738;2023-04-25T05:55:46;25.00;;;22.25;;
7879;SDS011;3985;49.366;2.738;2023-04-25T05:58:14;23.25;;;20.00;;
7879;SDS011;3985;49.366;2.738;2023-04-25T06:00:41;15.75;;;15.00;;
7879;SDS011;3985;49.366;2.738;2023-04-25T06:03:09;26.50;;;25.50;;
7879;SDS011;3985;49.366;2.738;2023-04-25T06:05:37;23.75;;;23.25;;
7879;SDS011;3985;49.366;2.738;2023-04-25T06:08:04;21.75;;;17.25;;
7879;SDS011;3985;49.366;2.738;2023-04-25T06:10:31;19.00;;;16.50;;
7879;SDS011;3985;49.366;2.738;2023-04-25T06:12:58;14.00;;;13.50;;
7879;SDS011;3985;49.366;2.738;2023-04-25T06:15:27;19.75;;;19.75;;
7879;SDS011;3985;49.366;2.738;2023-04-25T06:17:54;15.25;;;15.25;;
7879;SDS011;3985;49.366;2.738;2023-04-25T06:20:21;23.00;;;18.25;;
7879;SDS011;3985;49.366;2.738;2023-04-25T06:22:49;16.00;;;16.00;;
7879;SDS011;3985;49.366;2.738;2023-04-25T06:25:17;26.75;;;20.75;;
7879;SDS011;3985;49.366;2.738;2023-04-25T06:27:44;22.25;;;19.75;;
7879;SDS011;3985;49.366;2.738;2023-04-25T06:30:12;22.75;;;21.00;;
7879;SDS011;3985;49.366;2.738;2023-04-25T06:32:41;16.00;;;14.50;;
7879;SDS011;3985;49.366;2.738;2023-04-25T06:35:09;20.00;;;17.75;;
7879;SDS011;3985;49.366;2.738;2023-04-25T06:37:38;17.00;;;15.50;;
7879;SDS011;3985;49.366;2.738;2023-04-25T06:40:05;22.50;;;18.50;;
7879;SDS011;3985;49.366;2.738;2023-04-25T06:42:34;15.00;;;15.00;;
7879;SDS011;3985;49.366;2.738;2023-04-25T06:45:01;14.00;;;14.00;;
7879;SDS011;3985;49.366;2.738;2023-04-25T06:47:28;18.75;;;14.50;;
7879;SDS011;3985;49.366;2.738;2023-04-25T06:49:57;11.75;;;7.75;;
7879;SDS011;3985;49.366;2.738;2023-04-25T06:52:24;15.75;;;12.25;;
7879;SDS011;3985;49.366;2.738;2023-04-25T06:54:51;16.50;;;14.75;;
7879;SDS011;3985;49.366;2.738;2023-04-25T06:57:18;14.25;;;11.75;;
7879;SDS011;3985;49.366;2.738;2023-04-25T06:59:46;13.00;;;11.50;;
7879;SDS011;3985;49.366;2.738;2023-04-25T07:02:13;8.25;;;5.25;;
7879;SDS011;3985;49.366;2.738;2023-04-25T07:04:40;16.75;;;14.00;;
7879;SDS011;3985;49.366;2.738;2023-04-25T07:07:08;10.50;;;10.00;;
7879;SDS011;3985;49.366;2.738;2023-04-25T07:09:35;16.00;;;11.50;;
7879;SDS011;3985;49.366;2.738;2023-04-25T07:12:03;12.00;;;11.50;;
7879;SDS011;3985;49.366;2.738;2023-04-25T07:14:30;8.25;;;8.25;;
7879;SDS011;3985;49.366;2.738;2023-04-25T07:16:57;10.25;;;9.75;;
7879;SDS011;3985;49.366;2.738;2023-04-25T07:19:25;11.25;;;10.75;;
7879;SDS011;3985;49.366;2.738;2023-04-25T07:21:54;12.75;;;11.75;;
7879;SDS011;3985;49.366;2.738;2023-04-25T07:24:23;12.50;;;9.00;;
7879;SDS011;3985;49.366;2.738;2023-04-25T07:26:50;12.50;;;10.50;;
7879;SDS011;3985;49.366;2.738;2023-04-25T07:29:17;15.00;;;12.25;;
7879;SDS011;3985;49.366;2.738;2023-04-25T07:31:44;10.00;;;8.75;;
7879;SDS011;3985;49.366;2.738;2023-04-25T07:34:12;13.50;;;12.00;;
7879;SDS011;3985;49.366;2.738;2023-04-25T07:36:39;17.00;;;15.25;;
7879;SDS011;3985;49.366;2.738;2023-04-25T07:39:06;14.50;;;11.75;;
7879;SDS011;3985;49.366;2.738;2023-04-25T07:41:35;12.00;;;9.25;;
7879;SDS011;3985;49.366;2.738;2023-04-25T07:44:03;11.50;;;11.50;;
7879;SDS011;3985;49.366;2.738;2023-04-25T07:46:30;11.00;;;11.00;;
7879;SDS011;3985;49.366;2.738;2023-04-25T07:48:57;12.00;;;11.00;;
7879;SDS011;3985;49.366;2.738;2023-04-25T07:51:24;12.00;;;10.00;;
7879;SDS011;3985;49.366;2.738;2023-04-25T07:53:52;12.25;;;10.50;;
7879;SDS011;3985;49.366;2.738;2023-04-25T07:56:20;11.75;;;10.25;;
7879;SDS011;3985;49.366;2.738;2023-04-25T07:58:48;11.00;;;10.75;;
7879;SDS011;3985;49.366;2.738;2023-04-25T08:01:16;11.00;;;10.00;;
7879;SDS011;3985;49.366;2.738;2023-04-25T08:03:44;10.50;;;10.50;;
7879;SDS011;3985;49.366;2.738;2023-04-25T08:06:11;17.00;;;13.00;;
7879;SDS011;3985;49.366;2.738;2023-04-25T08:08:38;9.75;;;9.75;;
7879;SDS011;3985;49.366;2.738;2023-04-25T08:11:05;12.25;;;10.25;;
7879;SDS011;3985;49.366;2.738;2023-04-25T08:13:32;11.25;;;10.50;;
7879;SDS011;3985;49.366;2.738;2023-04-25T08:16:01;11.50;;;11.50;;
7879;SDS011;3985;49.366;2.738;2023-04-25T08:18:28;15.75;;;11.00;;
7879;SDS011;3985;49.366;2.738;2023-04-25T08:20:56;9.50;;;9.50;;
7879;SDS011;3985;49.366;2.738;2023-04-25T08:23:23;10.75;;;9.00;;
7879;SDS011;3985;49.366;2.738;2023-04-25T08:25:50;6.00;;;6.00;;
7879;SDS011;3985;49.366;2.738;2023-04-25T08:28:17;8.50;;;8.00;;
7879;SDS011;3985;49.366;2.738;2023-04-25T08:30:45;9.25;;;5.25;;
7879;SDS011;3985;49.366;2.738;2023-04-25T08:33:13;11.00;;;10.25;;
7879;SDS011;3985;49.366;2.738;2023-04-25T08:35:40;5.00;;;5.00;;
7879;SDS011;3985;49.366;2.738;2023-04-25T08:38:08;11.00;;;5.00;;
7879;SDS011;3985;49.366;2.738;2023-04-25T08:40:37;5.25;;;5.25;;
7879;SDS011;3985;49.366;2.738;2023-04-25T08:43:05;10.25;;;6.00;;
7879;SDS011;3985;49.366;2.738;2023-04-25T08:45:36;8.75;;;8.75;;
7879;SDS011;3985;49.366;2.738;2023-04-25T08:48:06;6.50;;;6.00;;
7879;SDS011;3985;49.366;2.738;2023-04-25T08:50:37;10.25;;;8.00;;
7879;SDS011;3985;49.366;2.738;2023-04-25T08:53:07;9.75;;;8.75;;
7879;SDS011;3985;49.366;2.738;2023-04-25T08:55:38;10.25;;;8.75;;
7879;SDS011;3985;49.366;2.738;2023-04-25T08:58:08;7.75;;;7.75;;
7879;SDS011;3985;49.366;2.738;2023-04-25T09:00:36;13.25;;;12.00;;
7879;SDS011;3985;49.366;2.738;2023-04-25T09:03:04;15.25;;;15.25;;
7879;SDS011;3985;49.366;2.738;2023-04-25T09:05:31;16.75;;;15.75;;
7879;SDS011;3985;49.366;2.738;2023-04-25T09:08:00;13.50;;;13.50;;
7879;SDS011;3985;49.366;2.738;2023-04-25T09:10:30;14.25;;;12.00;;
7879;SDS011;3985;49.366;2.738;2023-04-25T09:13:04;18.75;;;13.75;;
7879;SDS011;3985;49.366;2.738;2023-04-25T09:15:33;18.50;;;14.00;;
7879;SDS011;3985;49.366;2.738;2023-04-25T09:18:14;14.25;;;13.50;;
7879;SDS011;3985;49.366;2.738;2023-04-25T09:20:50;15.00;;;13.50;;
7879;SDS011;3985;49.366;2.738;2023-04-25T09:23:20;17.50;;;13.00;;
7879;SDS011;3985;49.366;2.738;2023-04-25T09:25:48;10.50;;;10.25;;
7879;SDS011;3985;49.366;2.738;2023-04-25T09:28:16;14.50;;;11.25;;
7879;SDS011;3985;49.366;2.738;2023-04-25T09:30:54;11.00;;;9.00;;
7879;SDS011;3985;49.366;2.738;2023-04-25T09:33:27;9.75;;;9.75;;
7879;SDS011;3985;49.366;2.738;2023-04-25T09:36:01;9.00;;;9.00;;
7879;SDS011;3985;49.366;2.738;2023-04-25T09:38:31;10.75;;;10.75;;
7879;SDS011;3985;49.366;2.738;2023-04-25T09:40:58;12.25;;;8.25;;
7879;SDS011;3985;49.366;2.738;2023-04-25T09:43:26;8.50;;;8.50;;
7879;SDS011;3985;49.366;2.738;2023-04-25T09:45:54;7.75;;;7.75;;
7879;SDS011;3985;49.366;2.738;2023-04-25T09:48:25;8.00;;;8.00;;
7879;SDS011;3985;49.366;2.738;2023-04-25T09:51:06;13.25;;;11.75;;
7879;SDS011;3985;49.366;2.738;2023-04-25T09:53:37;11.00;;;9.00;;
7879;SDS011;3985;49.366;2.738;2023-04-25T09:56:06;6.75;;;6.75;;
7879;SDS011;3985;49.366;2.738;2023-04-25T09:58:34;9.00;;;8.50;;
7879;SDS011;3985;49.366;2.738;2023-04-25T10:01:02;8.00;;;8.00;;
7879;SDS011;3985;49.366;2.738;2023-04-25T10:03:31;9.75;;;6.75;;
7879;SDS011;3985;49.366;2.738;2023-04-25T10:06:00;6.75;;;6.75;;
7879;SDS011;3985;49.366;2.738;2023-04-25T10:08:30;11.00;;;9.50;;
7879;SDS011;3985;49.366;2.738;2023-04-25T10:11:01;10.75;;;8.00;;
7879;SDS011;3985;49.366;2.738;2023-04-25T10:13:29;8.75;;;8.75;;
7879;SDS011;3985;49.366;2.738;2023-04-25T10:15:57;8.75;;;7.25;;
7879;SDS011;3985;49.366;2.738;2023-04-25T10:18:25;8.00;;;8.00;;
7879;SDS011;3985;49.366;2.738;2023-04-25T10:20:53;11.00;;;10.00;;
7879;SDS011;3985;49.366;2.738;2023-04-25T10:23:21;12.25;;;7.75;;
7879;SDS011;3985;49.366;2.738;2023-04-25T10:25:49;11.00;;;8.75;;
7879;SDS011;3985;49.366;2.738;2023-04-25T10:28:18;11.50;;;7.25;;
7879;SDS011;3985;49.366;2.738;2023-04-25T10:30:59;9.00;;;7.25;;
7879;SDS011;3985;49.366;2.738;2023-04-25T10:33:34;6.50;;;6.50;;
7879;SDS011;3985;49.366;2.738;2023-04-25T10:36:08;13.00;;;10.50;;
7879;SDS011;3985;49.366;2.738;2023-04-25T10:38:36;10.25;;;10.25;;
7879;SDS011;3985;49.366;2.738;2023-04-25T10:41:04;2.75;;;2.75;;
7879;SDS011;3985;49.366;2.738;2023-04-25T10:43:35;12.50;;;12.50;;
7879;SDS011;3985;49.366;2.738;2023-04-25T10:46:12;11.50;;;11.50;;
7879;SDS011;3985;49.366;2.738;2023-04-25T10:48:44;11.25;;;8.75;;
7879;SDS011;3985;49.366;2.738;2023-04-25T10:51:17;12.25;;;9.75;;
7879;SDS011;3985;49.366;2.738;2023-04-25T10:53:46;10.50;;;10.50;;
7879;SDS011;3985;49.366;2.738;2023-04-25T10:56:21;10.50;;;8.50;;
7879;SDS011;3985;49.366;2.738;2023-04-25T10:58:50;11.25;;;9.75;;
7879;SDS011;3985;49.366;2.738;2023-04-25T11:01:19;11.50;;;9.00;;
7879;SDS011;3985;49.366;2.738;2023-04-25T11:03:47;8.25;;;8.25;;
7879;SDS011;3985;49.366;2.738;2023-04-25T11:06:19;13.00;;;9.25;;
7879;SDS011;3985;49.366;2.738;2023-04-25T11:08:49;10.50;;;10.50;;
7879;SDS011;3985;49.366;2.738;2023-04-25T11:11:17;14.75;;;13.50;;
7879;SDS011;3985;49.366;2.738;2023-04-25T11:13:47;11.00;;;8.50;;
7879;SDS011;3985;49.366;2.738;2023-04-25T11:16:16;16.00;;;10.75;;
7879;SDS011;3985;49.366;2.738;2023-04-25T11:18:43;9.75;;;9.75;;
7879;SDS011;3985;49.366;2.738;2023-04-25T11:21:11;10.25;;;9.75;;
7879;SDS011;3985;49.366;2.738;2023-04-25T11:23:39;6.00;;;6.00;;
7879;SDS011;3985;49.366;2.738;2023-04-25T11:26:06;12.75;;;11.00;;
7879;SDS011;3985;49.366;2.738;2023-04-25T11:28:33;10.50;;;8.25;;
7879;SDS011;3985;49.366;2.738;2023-04-25T11:31:02;12.00;;;7.25;;
7879;SDS011;3985;49.366;2.738;2023-04-25T11:33:31;10.00;;;9.25;;
7879;SDS011;3985;49.366;2.738;2023-04-25T11:35:58;7.50;;;7.00;;
7879;SDS011;3985;49.366;2.738;2023-04-25T11:38:25;10.75;;;6.50;;
7879;SDS011;3985;49.366;2.738;2023-04-25T11:40:53;7.75;;;7.00;;
7879;SDS011;3985;49.366;2.738;2023-04-25T11:43:20;10.00;;;7.25;;
7879;SDS011;3985;49.366;2.738;2023-04-25T11:45:48;7.75;;;6.25;;
7879;SDS011;3985;49.366;2.738;2023-04-25T11:48:16;4.50;;;4.50;;
7879;SDS011;3985;49.366;2.738;2023-04-25T11:50:45;8.00;;;6.25;;
7879;SDS011;3985;49.366;2.738;2023-04-25T11:53:12;7.00;;;7.00;;
7879;SDS011;3985;49.366;2.738;2023-04-25T11:55:39;8.00;;;6.00;;
7879;SDS011;3985;49.366;2.738;2023-04-25T11:58:07;9.25;;;9.25;;
7879;SDS011;3985;49.366;2.738;2023-04-25T12:00:35;10.00;;;10.00;;
7879;SDS011;3985;49.366;2.738;2023-04-25T12:03:02;6.25;;;5.50;;
7879;SDS011;3985;49.366;2.738;2023-04-25T12:05:30;13.00;;;9.75;;
7879;SDS011;3985;49.366;2.738;2023-04-25T12:08:10;10.75;;;7.50;;
7879;SDS011;3985;49.366;2.738;2023-04-25T12:10:38;6.00;;;6.00;;
7879;SDS011;3985;49.366;2.738;2023-04-25T12:13:22;5.67;;;5.67;;
7879;SDS011;3985;49.366;2.738;2023-04-25T12:15:50;8.75;;;8.00;;
7879;SDS011;3985;49.366;2.738;2023-04-25T12:18:22;14.00;;;11.75;;
7879;SDS011;3985;49.366;2.738;2023-04-25T12:20:52;8.67;;;8.67;;
7879;SDS011;3985;49.366;2.738;2023-04-25T12:23:25;6.33;;;6.33;;
7879;SDS011;3985;49.366;2.738;2023-04-25T12:25:53;6.00;;;6.00;;
7879;SDS011;3985;49.366;2.738;2023-04-25T12:28:21;7.67;;;6.00;;
7879;SDS011;3985;49.366;2.738;2023-04-25T12:30:56;7.33;;;5.67;;
7879;SDS011;3985;49.366;2.738;2023-04-25T12:33:24;11.00;;;6.00;;
7879;SDS011;3985;49.366;2.738;2023-04-25T12:35:53;7.00;;;7.00;;
7879;SDS011;3985;49.366;2.738;2023-04-25T12:38:21;4.33;;;4.33;;
7879;SDS011;3985;49.366;2.738;2023-04-25T12:40:50;5.00;;;5.00;;
7879;SDS011;3985;49.366;2.738;2023-04-25T12:43:17;6.00;;;5.33;;
7879;SDS011;3985;49.366;2.738;2023-04-25T12:45:46;7.25;;;5.00;;
7879;SDS011;3985;49.366;2.738;2023-04-25T12:48:15;4.00;;;3.50;;
7879;SDS011;3985;49.366;2.738;2023-04-25T12:50:42;6.50;;;5.00;;
7879;SDS011;3985;49.366;2.738;2023-04-25T12:53:09;7.75;;;5.75;;
7879;SDS011;3985;49.366;2.738;2023-04-25T12:55:36;4.00;;;4.00;;
7879;SDS011;3985;49.366;2.738;2023-04-25T12:58:05;6.50;;;5.50;;
7879;SDS011;3985;49.366;2.738;2023-04-25T13:00:32;6.00;;;6.00;;
7879;SDS011;3985;49.366;2.738;2023-04-25T13:02:59;6.00;;;6.00;;
7879;SDS011;3985;49.366;2.738;2023-04-25T13:05:29;4.25;;;4.25;;
7879;SDS011;3985;49.366;2.738;2023-04-25T13:07:56;4.75;;;4.75;;
7879;SDS011;3985;49.366;2.738;2023-04-25T13:10:24;6.00;;;6.00;;
7879;SDS011;3985;49.366;2.738;2023-04-25T13:12:51;5.00;;;5.00;;
7879;SDS011;3985;49.366;2.738;2023-04-25T13:15:20;5.75;;;5.25;;
7879;SDS011;3985;49.366;2.738;2023-04-25T13:17:48;4.50;;;4.00;;
7879;SDS011;3985;49.366;2.738;2023-04-25T13:20:15;3.50;;;3.50;;
7879;SDS011;3985;49.366;2.738;2023-04-25T13:22:44;4.00;;;4.00;;
7879;SDS011;3985;49.366;2.738;2023-04-25T13:25:11;5.75;;;5.00;;
7879;SDS011;3985;49.366;2.738;2023-04-25T13:27:38;4.75;;;3.25;;
7879;SDS011;3985;49.366;2.738;2023-04-25T13:30:07;4.00;;;4.00;;
7879;SDS011;3985;49.366;2.738;2023-04-25T13:32:36;4.75;;;4.75;;
7879;SDS011;3985;49.366;2.738;2023-04-25T13:35:04;4.50;;;4.50;;
7879;SDS011;3985;49.366;2.738;2023-04-25T13:37:33;5.75;;;3.75;;
7879;SDS011;3985;49.366;2.738;2023-04-25T13:40:01;4.50;;;3.25;;
7879;SDS011;3985;49.366;2.738;2023-04-25T13:42:30;5.00;;;5.00;;
7879;SDS011;3985;49.366;2.738;2023-04-25T13:44:57;3.75;;;3.75;;
7879;SDS011;3985;49.366;2.738;2023-04-25T13:47:25;4.75;;;4.75;;
7879;SDS011;3985;49.366;2.738;2023-04-25T13:49:54;4.25;;;4.25;;
7879;SDS011;3985;49.366;2.738;2023-04-25T13:52:21;5.00;;;5.00;;
7879;SDS011;3985;49.366;2.738;2023-04-25T13:54:49;4.00;;;4.00;;
7879;SDS011;3985;49.366;2.738;2023-04-25T13:57:17;6.75;;;6.75;;
7879;SDS011;3985;49.366;2.738;2023-04-25T13:59:44;7.75;;;6.00;;
7879;SDS011;3985;49.366;2.738;2023-04-25T14:02:12;5.50;;;4.00;;
7879;SDS011;3985;49.366;2.738;2023-04-25T14:04:39;5.50;;;5.50;;
7879;SDS011;3985;49.366;2.738;2023-04-25T14:07:08;4.00;;;4.00;;
7879;SDS011;3985;49.366;2.738;2023-04-25T14:09:35;5.00;;;5.00;;
7879;SDS011;3985;49.366;2.738;2023-04-25T14:12:03;2.75;;;2.00;;
7879;SDS011;3985;49.366;2.738;2023-04-25T14:14:31;6.50;;;6.00;;
7879;SDS011;3985;49.366;2.738;2023-04-25T14:16:58;4.00;;;4.00;;
7879;SDS011;3985;49.366;2.738;2023-04-25T14:19:25;7.25;;;7.25;;
7879;SDS011;3985;49.366;2.738;2023-04-25T14:21:53;6.00;;;5.25;;
7879;SDS011;3985;49.366;2.738;2023-04-25T14:24:22;5.25;;;5.25;;
7879;SDS011;3985;49.366;2.738;2023-04-25T14:26:50;4.00;;;4.00;;
7879;SDS011;3985;49.366;2.738;2023-04-25T14:29:17;8.25;;;8.25;;
7879;SDS011;3985;49.366;2.738;2023-04-25T14:31:44;7.75;;;7.75;;
7879;SDS011;3985;49.366;2.738;2023-04-25T14:34:12;7.25;;;7.25;;
7879;SDS011;3985;49.366;2.738;2023-04-25T14:36:39;5.75;;;5.50;;
7879;SDS011;3985;49.366;2.738;2023-04-25T14:39:07;7.75;;;6.75;;
7879;SDS011;3985;49.366;2.738;2023-04-25T14:41:36;6.75;;;6.25;;
7879;SDS011;3985;49.366;2.738;2023-04-25T14:44:03;7.25;;;7.25;;
7879;SDS011;3985;49.366;2.738;2023-04-25T14:46:30;6.00;;;6.00;;
7879;SDS011;3985;49.366;2.738;2023-04-25T14:48:58;7.00;;;7.00;;
7879;SDS011;3985;49.366;2.738;2023-04-25T14:51:25;5.25;;;5.25;;
7879;SDS011;3985;49.366;2.738;2023-04-25T14:53:52;5.00;;;5.00;;
7879;SDS011;3985;49.366;2.738;2023-04-25T14:56:20;5.00;;;5.00;;
7879;SDS011;3985;49.366;2.738;2023-04-25T14:58:48;5.00;;;5.00;;
7879;SDS011;3985;49.366;2.738;2023-04-25T15:01:16;3.25;;;3.25;;
7879;SDS011;3985;49.366;2.738;2023-04-25T15:03:45;5.00;;;4.50;;
7879;SDS011;3985;49.366;2.738;2023-04-25T15:06:13;6.00;;;6.00;;